Terminal Aerodrome Forecast
Issued by NWS

Home | Current Version | Previous Version | Graphics & Text | Print | Product List | Glossary On
Versions: 1 2 3 4 5 6 7 8 9 10 11 12 13 14 15 16 17 18 19
000
FTUS42 KMHX 150555
TAFOAJ
TAF
KOAJ 150555Z 1506/1606 23006KT P6SM BKN090
     FM151500 24010G19KT P6SM SCT090
     FM160300 23010KT P6SM SCT015 BKN250
      AMD LTD TO CLD VIS AND WIND=

USA.gov is the U.S. government's official web portal to all federal, state and local government web resources and services.